map of KLO home
KLO - Airport
Location
City:  Kalibo, Philippines
Name:Kalibo International Airport
ICAO:RPVK
IATA:KLO

Details
Type:Airport (Aerodrome, Airfield)
Use:International (customs port of entry)
Latitude:1140'46"N (11.679431)
Longitude:12222'35"E (122.376294)
Datum:WGS 1984
Elevation:14 ft (4 m)
Variation:1.75W (WMM2015 magnetic declination)
-0.10 annual change
Runways:1
Longest:7175 × 148 ft (2187 × 45 m), paved

Time
Time Zone:UTC+8
Local Time:

Weather
TAF:RPVK 161100Z 1612/1712 03008KT 9999 FEW016 SCT070
TEMPO 1612/1618 06006KT 8000 -SHRA SCT016 BKN070

Related Locations
Nearby:
Farthest:SWOI: 12446 mi / 20030 km
Juara [Fazenda Juara], MT, BR

Find:

   beyond  
but within

Other Information
Maps:
NOTAMs:
Links:
Sources:

  
  • flag of Philippines
  

Sectional Chart

Flight Planning
at skyvector.com

Satellite Image

Google Maps Satellite view

 

Copyright © 2004-2018 Karl L. Swartz. All rights reserved.
The Great Circle Mapper name and logo are trademarks of the Great Circle Mapper.
All other trademarks mentioned herein belong to their respective owners.
Please see credits for attibutions and further copyright information.

  Follow gcmap on Facebook Follow gcmap on Twitter Follow gcmap on Google+ GCmap on LinkedIn

hCard Microformat

Geo Microformat